createdAt,value
2019-03-18T00:01:48.073Z,9.46
2019-03-18T00:04:14.378Z,9.39
2019-03-18T00:06:40.683Z,9.42
2019-03-18T00:09:07.023Z,9.35
2019-03-18T00:11:33.327Z,9.38
2019-03-18T00:13:59.817Z,9.29
2019-03-18T00:16:26.123Z,9.36
2019-03-18T00:18:52.539Z,9.58
2019-03-18T00:21:18.856Z,9.38
2019-03-18T00:23:45.205Z,9.24
2019-03-18T00:26:11.508Z,9.39
2019-03-18T00:28:37.817Z,9.50
2019-03-18T00:31:04.139Z,9.43
2019-03-18T00:33:30.444Z,9.43
2019-03-18T00:35:58.154Z,9.37
2019-03-18T00:38:23.133Z,9.19
2019-03-18T00:40:49.431Z,9.27
2019-03-18T00:43:15.749Z,9.37
2019-03-18T00:45:42.061Z,9.24
2019-03-18T00:48:08.374Z,9.22
2019-03-18T00:50:34.701Z,9.16
2019-03-18T00:53:01.016Z,8.88
2019-03-18T00:55:27.325Z,8.87
2019-03-18T00:57:53.623Z,8.92
2019-03-18T01:00:19.938Z,9.01
2019-03-18T01:02:49.127Z,9.10
2019-03-18T01:05:12.566Z,9.00
2019-03-18T01:07:38.872Z,8.85
2019-03-18T01:10:05.175Z,8.95
2019-03-18T01:12:31.624Z,8.98
2019-03-18T01:14:57.881Z,9.02
2019-03-18T01:17:24.188Z,9.16
2019-03-18T01:19:50.494Z,9.13
2019-03-18T01:22:16.830Z,8.95
2019-03-18T01:24:43.146Z,8.75
2019-03-18T01:27:09.451Z,8.81
2019-03-18T01:29:35.757Z,8.87
2019-03-18T01:32:02.077Z,8.90
2019-03-18T01:34:28.387Z,8.77
2019-03-18T01:36:54.692Z,8.63
2019-03-18T01:39:21.039Z,8.58
2019-03-18T01:41:47.342Z,8.36
2019-03-18T01:44:13.660Z,8.17
2019-03-18T01:46:39.949Z,8.28
2019-03-18T01:49:06.256Z,8.36
2019-03-18T01:51:32.562Z,8.32
2019-03-18T01:53:58.873Z,8.22
2019-03-18T01:56:25.192Z,8.16
2019-03-18T01:58:51.483Z,7.98
2019-03-18T02:01:17.832Z,7.78
2019-03-18T02:03:44.125Z,7.62
2019-03-18T02:06:10.437Z,7.70
2019-03-18T02:08:36.744Z,7.77
2019-03-18T02:11:03.053Z,7.77
2019-03-18T02:13:29.359Z,7.74
2019-03-18T02:15:55.670Z,7.78
2019-03-18T02:18:21.980Z,7.54
2019-03-18T02:20:48.283Z,7.40
2019-03-18T02:23:14.612Z,7.21
2019-03-18T02:25:40.924Z,7.23
2019-03-18T02:28:07.220Z,7.23
2019-03-18T02:30:33.529Z,7.39
2019-03-18T02:32:59.833Z,7.29
2019-03-18T02:35:26.156Z,7.32
2019-03-18T02:37:52.615Z,7.41
2019-03-18T02:40:18.776Z,7.42
2019-03-18T02:42:45.086Z,7.32
2019-03-18T02:45:11.395Z,7.33
2019-03-18T02:47:37.708Z,7.25
2019-03-18T02:50:04.008Z,7.41
2019-03-18T02:52:30.321Z,7.50
2019-03-18T02:54:56.631Z,7.65
2019-03-18T02:57:22.937Z,7.74
2019-03-18T02:59:49.264Z,7.61
2019-03-18T03:02:15.549Z,7.65
2019-03-18T03:04:41.863Z,7.65
2019-03-18T03:07:08.174Z,7.55
2019-03-18T03:09:34.507Z,7.39
2019-03-18T03:12:00.807Z,7.30
2019-03-18T03:14:27.116Z,7.29
2019-03-18T03:16:53.429Z,7.04
2019-03-18T03:19:19.731Z,6.81
2019-03-18T03:21:46.045Z,6.70
2019-03-18T03:24:12.344Z,6.71
2019-03-18T03:26:38.657Z,6.70
2019-03-18T03:29:04.961Z,6.53
2019-03-18T03:31:31.267Z,6.45
2019-03-18T03:33:57.574Z,6.46
2019-03-18T03:36:23.881Z,6.37
2019-03-18T03:38:50.191Z,6.52
2019-03-18T03:41:18.311Z,6.71
2019-03-18T03:43:42.803Z,6.63
2019-03-18T03:46:09.105Z,6.48
2019-03-18T03:48:35.460Z,6.49
2019-03-18T03:51:01.744Z,6.38
2019-03-18T03:53:30.864Z,6.44
2019-03-18T03:55:54.372Z,6.48
2019-03-18T03:58:20.680Z,6.35
2019-03-18T04:00:46.992Z,6.27
2019-03-18T04:03:13.301Z,6.25
2019-03-18T04:05:39.609Z,6.27
2019-03-18T04:08:05.912Z,6.25
2019-03-18T04:10:32.239Z,6.37
2019-03-18T04:12:58.551Z,6.46
2019-03-18T04:15:24.847Z,6.54
2019-03-18T04:17:51.157Z,6.41
2019-03-18T04:20:17.493Z,6.35
2019-03-18T04:22:43.791Z,6.48
2019-03-18T04:25:10.088Z,6.37
2019-03-18T04:27:36.399Z,6.33
2019-03-18T04:30:02.717Z,6.38
2019-03-18T04:32:29.054Z,6.51
2019-03-18T04:34:55.351Z,6.58
2019-03-18T04:37:21.655Z,6.48
2019-03-18T04:39:47.964Z,6.45
2019-03-18T04:42:14.271Z,6.58
2019-03-18T04:44:40.582Z,6.64
2019-03-18T04:47:14.344Z,6.58
2019-03-18T04:49:33.204Z,6.61
2019-03-18T04:51:59.515Z,6.81
2019-03-18T04:54:25.829Z,7.18
2019-03-18T04:56:52.201Z,7.37
2019-03-18T04:59:19.235Z,7.40
2019-03-18T05:01:45.541Z,7.57
2019-03-18T05:04:11.839Z,7.47
2019-03-18T05:06:38.179Z,7.31
2019-03-18T05:09:04.484Z,7.43
2019-03-18T05:11:30.954Z,7.75
2019-03-18T05:13:57.375Z,7.88
2019-03-18T05:16:23.573Z,8.16
2019-03-18T05:18:49.880Z,8.14
2019-03-18T05:21:16.189Z,8.42
2019-03-18T05:23:42.508Z,8.33
2019-03-18T05:26:08.811Z,8.69
2019-03-18T05:28:35.142Z,8.63
2019-03-18T05:31:01.446Z,8.86
2019-03-18T05:33:27.762Z,9.33
2019-03-18T05:35:54.078Z,9.27
2019-03-18T05:38:20.392Z,9.60
2019-03-18T05:40:46.706Z,9.70
2019-03-18T05:43:13.005Z,9.73
2019-03-18T05:45:39.381Z,9.63
2019-03-18T05:48:05.762Z,9.63
2019-03-18T05:50:32.011Z,9.92
2019-03-18T05:52:58.367Z,10.33
2019-03-18T05:55:24.681Z,10.31
2019-03-18T05:57:50.996Z,10.39
2019-03-18T06:00:17.307Z,10.77
2019-03-18T06:02:46.680Z,11.07
2019-03-18T06:05:09.912Z,10.84
2019-03-18T06:07:36.227Z,11.10
2019-03-18T06:10:02.530Z,11.28
2019-03-18T06:12:28.840Z,11.23
2019-03-18T06:14:55.147Z,11.53
2019-03-18T06:17:21.469Z,11.69
2019-03-18T06:19:47.776Z,11.94
2019-03-18T06:22:14.085Z,12.19
2019-03-18T06:24:40.436Z,12.31
2019-03-18T06:27:06.730Z,12.70
2019-03-18T06:29:33.102Z,12.73
2019-03-18T06:31:59.380Z,12.80
2019-03-18T06:34:25.717Z,12.96
2019-03-18T06:36:52.040Z,13.39
2019-03-18T06:39:18.412Z,13.42
2019-03-18T06:41:44.758Z,13.75
2019-03-18T06:44:11.079Z,13.77
2019-03-18T06:46:37.386Z,13.73
2019-03-18T06:49:03.728Z,13.83
2019-03-18T06:51:30.040Z,13.57
2019-03-18T06:53:56.371Z,13.79
2019-03-18T06:56:22.714Z,14.26
2019-03-18T06:58:49.802Z,14.06
2019-03-18T07:01:16.114Z,14.17
2019-03-18T07:03:42.420Z,14.34
2019-03-18T07:06:08.732Z,14.27
2019-03-18T07:08:35.028Z,15.06
2019-03-18T07:11:01.336Z,15.23
2019-03-18T07:13:27.648Z,15.28
2019-03-18T07:15:53.983Z,15.51
2019-03-18T07:18:20.293Z,15.77
2019-03-18T07:20:46.612Z,16.27
2019-03-18T07:23:13.014Z,16.32
2019-03-18T07:25:39.329Z,16.14
2019-03-18T07:28:05.641Z,16.24
2019-03-18T07:30:31.949Z,16.28
2019-03-18T07:32:58.264Z,16.80
2019-03-18T07:35:24.571Z,16.53
2019-03-18T07:37:50.884Z,16.48
2019-03-18T07:40:17.203Z,16.64
2019-03-18T07:42:43.503Z,16.77
2019-03-18T07:45:09.824Z,16.25
2019-03-18T07:47:36.128Z,16.68
2019-03-18T07:50:02.435Z,16.71
2019-03-18T07:52:28.746Z,17.38
2019-03-18T07:54:55.046Z,17.36
2019-03-18T07:57:21.366Z,17.14
2019-03-18T07:59:47.664Z,17.43
2019-03-18T08:02:13.976Z,17.45
2019-03-18T08:04:40.281Z,17.95
2019-03-18T08:07:06.617Z,17.95
2019-03-18T08:09:32.922Z,17.62
2019-03-18T08:11:59.229Z,17.76
2019-03-18T08:14:25.540Z,18.03
2019-03-18T08:16:51.855Z,17.53
2019-03-18T08:19:18.164Z,17.72
2019-03-18T08:21:44.482Z,18.38
2019-03-18T08:24:10.779Z,18.50
2019-03-18T08:26:37.145Z,18.58
2019-03-18T08:29:03.457Z,18.87
2019-03-18T08:31:29.769Z,19.30
2019-03-18T08:33:56.080Z,18.66
2019-03-18T08:36:22.399Z,18.92
2019-03-18T08:38:48.707Z,18.61
2019-03-18T08:41:15.023Z,18.81
2019-03-18T08:43:41.325Z,19.10
2019-03-18T08:46:07.638Z,19.06
2019-03-18T08:48:33.958Z,19.39
2019-03-18T08:51:00.263Z,19.36
2019-03-18T08:53:26.572Z,19.60
2019-03-18T08:55:52.880Z,19.89
2019-03-18T08:58:19.311Z,20.37
2019-03-18T09:00:45.622Z,20.25
2019-03-18T09:03:11.946Z,20.37
2019-03-18T09:05:38.249Z,20.64
2019-03-18T09:08:04.576Z,20.77
2019-03-18T09:10:30.884Z,20.60
2019-03-18T09:12:57.189Z,20.78
2019-03-18T09:15:23.519Z,20.93
2019-03-18T09:17:49.830Z,21.30
2019-03-18T09:20:16.136Z,21.88
2019-03-18T09:22:42.450Z,21.48
2019-03-18T09:25:08.762Z,21.40
2019-03-18T09:27:35.102Z,21.79
2019-03-18T09:30:01.441Z,22.20
2019-03-18T09:32:27.750Z,22.14
2019-03-18T09:34:54.874Z,22.21
2019-03-18T09:37:20.460Z,22.78
2019-03-18T09:39:46.768Z,22.83
2019-03-18T09:42:13.088Z,22.89
2019-03-18T09:44:39.392Z,22.59
2019-03-18T09:47:05.718Z,22.79
2019-03-18T09:49:32.027Z,22.76
2019-03-18T09:51:58.355Z,23.10
2019-03-18T09:54:24.661Z,23.43
2019-03-18T09:56:51.021Z,23.78
2019-03-18T09:59:17.337Z,24.04
2019-03-18T10:01:44.576Z,23.86
2019-03-18T10:04:09.983Z,23.91
2019-03-18T10:06:36.294Z,24.07
2019-03-18T10:09:02.606Z,24.22
2019-03-18T10:11:28.931Z,24.86
2019-03-18T10:13:55.324Z,24.81
2019-03-18T10:16:21.629Z,24.38
2019-03-18T10:18:47.948Z,24.29
2019-03-18T10:21:14.303Z,23.85
2019-03-18T10:23:40.651Z,24.22
2019-03-18T10:26:06.961Z,24.84
2019-03-18T10:28:33.278Z,24.47
2019-03-18T10:30:59.590Z,24.88
2019-03-18T10:33:25.903Z,24.86
2019-03-18T10:35:54.199Z,25.34
2019-03-18T10:38:18.575Z,25.41
2019-03-18T10:40:44.908Z,25.92
2019-03-18T10:43:11.213Z,25.82
2019-03-18T10:45:37.520Z,25.80
2019-03-18T10:48:03.845Z,25.47
2019-03-18T10:50:30.150Z,25.23
2019-03-18T10:52:56.500Z,25.18
2019-03-18T10:55:22.803Z,25.82
2019-03-18T10:57:49.115Z,26.54
2019-03-18T11:00:15.490Z,26.79
2019-03-18T11:02:44.680Z,26.87
2019-03-18T11:05:08.417Z,26.51
2019-03-18T11:07:34.417Z,26.52
2019-03-18T11:10:00.732Z,26.69
2019-03-18T11:12:27.037Z,26.47
2019-03-18T11:14:53.343Z,26.60
2019-03-18T11:17:19.658Z,26.55
2019-03-18T11:19:57.579Z,26.69
2019-03-18T11:22:12.303Z,26.04
2019-03-18T11:24:38.613Z,25.57
2019-03-18T11:27:04.930Z,25.89
2019-03-18T11:29:31.241Z,26.49
2019-03-18T11:31:57.585Z,26.91
2019-03-18T11:34:23.886Z,26.87
2019-03-18T11:36:50.227Z,27.30
2019-03-18T11:39:16.531Z,27.82
2019-03-18T11:41:42.858Z,27.58
2019-03-18T11:44:09.166Z,27.51
2019-03-18T11:46:35.496Z,27.65
2019-03-18T11:49:01.826Z,27.94
2019-03-18T11:51:28.146Z,27.93
2019-03-18T11:53:54.449Z,28.07
2019-03-18T11:56:20.792Z,27.98
2019-03-18T11:58:47.093Z,27.82
2019-03-18T12:01:13.401Z,27.85
2019-03-18T12:03:39.712Z,27.45
2019-03-18T12:06:06.043Z,27.51
2019-03-18T12:08:32.351Z,28.32
2019-03-18T12:10:58.733Z,27.94
2019-03-18T12:13:24.977Z,27.76
2019-03-18T12:15:51.285Z,27.25
2019-03-18T12:18:17.608Z,27.41
2019-03-18T12:20:43.920Z,27.65
2019-03-18T12:23:10.225Z,28.30
2019-03-18T12:25:36.580Z,28.85
2019-03-18T12:28:05.238Z,28.46
2019-03-18T12:30:29.216Z,28.96
2019-03-18T12:32:55.522Z,29.25
2019-03-18T12:35:21.833Z,28.81
2019-03-18T12:37:48.142Z,28.45
2019-03-18T12:40:14.470Z,28.39
2019-03-18T12:42:40.784Z,28.07
2019-03-18T12:45:08.809Z,27.89
2019-03-18T12:47:33.429Z,28.57
2019-03-18T12:49:59.734Z,28.97
2019-03-18T12:52:26.076Z,28.34
2019-03-18T12:54:52.375Z,28.18
2019-03-18T12:57:18.687Z,28.76
2019-03-18T12:59:45.030Z,28.93
2019-03-18T13:02:11.377Z,28.71
2019-03-18T13:04:37.683Z,28.33
2019-03-18T13:07:03.994Z,28.09
2019-03-18T13:09:30.311Z,27.58
2019-03-18T13:11:56.632Z,27.17
2019-03-18T13:14:22.964Z,26.66
2019-03-18T13:16:49.307Z,25.65
2019-03-18T13:19:15.620Z,25.19
2019-03-18T13:21:41.935Z,25.10
2019-03-18T13:24:08.238Z,24.85
2019-03-18T13:26:34.578Z,25.03
2019-03-18T13:29:00.958Z,25.28
2019-03-18T13:31:27.192Z,25.15
2019-03-18T13:33:53.497Z,25.21
2019-03-18T13:36:19.804Z,24.92
2019-03-18T13:38:46.176Z,24.51
2019-03-18T13:41:12.477Z,24.29
2019-03-18T13:43:38.869Z,24.25
2019-03-18T13:46:05.191Z,24.44
2019-03-18T13:48:31.492Z,24.39
2019-03-18T13:50:57.800Z,24.47
2019-03-18T13:53:24.112Z,24.63
2019-03-18T13:55:50.440Z,24.75
2019-03-18T13:58:16.747Z,24.78
2019-03-18T14:00:43.072Z,24.83
2019-03-18T14:03:09.371Z,24.89
2019-03-18T14:05:35.706Z,24.77
2019-03-18T14:08:02.027Z,24.77
2019-03-18T14:10:28.331Z,24.63
2019-03-18T14:12:54.648Z,24.62
2019-03-18T14:15:20.970Z,24.31
2019-03-18T14:17:47.295Z,24.14
2019-03-18T14:20:13.599Z,24.23
2019-03-18T14:22:39.905Z,24.30
2019-03-18T14:25:06.223Z,24.23
2019-03-18T14:27:32.532Z,24.09
2019-03-18T14:29:58.862Z,24.02
2019-03-18T14:32:25.171Z,24.11
2019-03-18T14:34:51.481Z,24.12
2019-03-18T14:37:17.789Z,24.14
2019-03-18T14:39:44.095Z,24.02
2019-03-18T14:42:10.408Z,24.06
2019-03-18T14:44:36.710Z,23.97
2019-03-18T14:47:03.041Z,24.04
2019-03-18T14:49:29.346Z,23.96
2019-03-18T14:51:55.659Z,23.94
2019-03-18T14:54:21.969Z,23.84
2019-03-18T14:56:48.277Z,23.90
2019-03-18T14:59:14.599Z,23.87
2019-03-18T15:01:40.905Z,23.89
2019-03-18T15:04:07.265Z,23.91
2019-03-18T15:06:33.573Z,23.87
2019-03-18T15:08:59.880Z,23.87
2019-03-18T15:11:26.195Z,23.90
2019-03-18T15:13:52.511Z,23.86
2019-03-18T15:16:18.873Z,23.78
2019-03-18T15:18:45.197Z,23.55
2019-03-18T15:21:11.505Z,23.48
2019-03-18T15:23:37.822Z,23.43
2019-03-18T15:26:05.272Z,23.44
2019-03-18T15:28:30.433Z,23.34
2019-03-18T15:30:56.747Z,23.22
2019-03-18T15:33:23.089Z,23.12
2019-03-18T15:35:49.405Z,23.10
2019-03-18T15:38:15.730Z,23.04
2019-03-18T15:40:42.021Z,23.01
2019-03-18T15:43:08.333Z,22.97
2019-03-18T15:45:34.679Z,22.97
2019-03-18T15:48:00.988Z,22.90
2019-03-18T15:50:27.334Z,22.84
2019-03-18T15:52:53.645Z,22.73
2019-03-18T15:55:19.972Z,22.65
2019-03-18T15:57:46.299Z,22.61
2019-03-18T16:00:12.604Z,22.56
2019-03-18T16:02:38.954Z,22.51
2019-03-18T16:05:05.264Z,22.46
2019-03-18T16:07:31.572Z,22.37
2019-03-18T16:09:57.895Z,22.29
2019-03-18T16:12:24.288Z,22.23
2019-03-18T16:14:50.603Z,22.15
2019-03-18T16:17:16.918Z,22.09
2019-03-18T16:19:43.227Z,21.98
2019-03-18T16:22:09.587Z,21.89
2019-03-18T16:24:36.006Z,21.82
2019-03-18T16:27:02.343Z,21.73
2019-03-18T16:29:28.636Z,21.60
2019-03-18T16:31:54.952Z,21.49
2019-03-18T16:34:21.312Z,21.38
2019-03-18T16:36:47.577Z,21.23
2019-03-18T16:39:13.899Z,21.09
2019-03-18T16:41:40.234Z,20.97
2019-03-18T16:44:06.555Z,20.96
2019-03-18T16:46:32.942Z,20.90
2019-03-18T16:48:59.220Z,20.76
2019-03-18T16:51:25.528Z,20.68
2019-03-18T16:53:51.848Z,20.60
2019-03-18T16:56:18.164Z,20.60
2019-03-18T16:58:44.513Z,20.54
2019-03-18T17:01:10.821Z,20.50
2019-03-18T17:03:37.121Z,20.61
2019-03-18T17:06:03.483Z,20.52
2019-03-18T17:08:29.751Z,20.37
2019-03-18T17:10:56.063Z,20.06
2019-03-18T17:13:22.385Z,19.62
2019-03-18T17:15:48.719Z,19.41
2019-03-18T17:18:17.778Z,19.23
2019-03-18T17:20:41.345Z,18.94
2019-03-18T17:23:07.662Z,18.88
2019-03-18T17:25:33.963Z,18.84
2019-03-18T17:28:00.279Z,18.76
2019-03-18T17:30:26.948Z,18.62
2019-03-18T17:32:52.918Z,18.40
2019-03-18T17:35:19.230Z,18.21
2019-03-18T17:37:45.540Z,18.10
2019-03-18T17:40:11.845Z,17.86
2019-03-18T17:42:38.160Z,17.57
2019-03-18T17:45:04.515Z,17.38
2019-03-18T17:47:30.777Z,17.29
2019-03-18T17:49:57.374Z,17.28
2019-03-18T17:52:23.688Z,17.21
2019-03-18T17:54:49.993Z,17.15
2019-03-18T17:57:16.305Z,17.13
2019-03-18T17:59:42.612Z,17.04
2019-03-18T18:02:08.948Z,16.96
2019-03-18T18:04:35.264Z,16.91
2019-03-18T18:07:01.572Z,16.83
2019-03-18T18:09:27.882Z,16.84
2019-03-18T18:11:54.202Z,16.89
2019-03-18T18:14:20.530Z,16.79
2019-03-18T18:16:46.844Z,16.61
2019-03-18T18:19:13.235Z,16.70
2019-03-18T18:21:39.541Z,16.90
2019-03-18T18:24:05.852Z,16.98
2019-03-18T18:26:32.157Z,16.91
2019-03-18T18:28:58.510Z,16.76
2019-03-18T18:31:24.829Z,16.73
2019-03-18T18:33:51.141Z,16.63
2019-03-18T18:36:17.491Z,16.52
2019-03-18T18:38:43.803Z,16.49
2019-03-18T18:41:10.147Z,16.50
2019-03-18T18:43:36.456Z,16.55
2019-03-18T18:46:02.786Z,16.52
2019-03-18T18:48:29.093Z,16.44
2019-03-18T18:50:55.402Z,16.43
2019-03-18T18:53:26.518Z,16.46
2019-03-18T18:55:48.036Z,16.43
2019-03-18T18:58:14.345Z,16.44
2019-03-18T19:00:40.683Z,16.49
2019-03-18T19:03:06.997Z,16.48
2019-03-18T19:05:33.306Z,16.45
2019-03-18T19:07:59.638Z,16.41
2019-03-18T19:10:25.947Z,16.36
2019-03-18T19:12:52.259Z,16.47
2019-03-18T19:15:18.591Z,16.41
2019-03-18T19:17:44.897Z,16.27
2019-03-18T19:20:11.241Z,16.15
2019-03-18T19:22:37.552Z,16.22
2019-03-18T19:25:03.864Z,16.32
2019-03-18T19:27:30.201Z,16.18
2019-03-18T19:29:56.518Z,16.08
2019-03-18T19:32:22.870Z,16.10
2019-03-18T19:34:49.195Z,15.97
2019-03-18T19:37:15.504Z,15.87
2019-03-18T19:39:41.924Z,15.74
2019-03-18T19:42:08.246Z,15.80
2019-03-18T19:44:34.568Z,15.68
2019-03-18T19:47:00.886Z,15.73
2019-03-18T19:49:27.307Z,15.72
2019-03-18T19:51:53.617Z,15.63
2019-03-18T19:54:19.931Z,15.42
2019-03-18T19:56:46.428Z,15.38
2019-03-18T19:59:12.690Z,15.36
2019-03-18T20:01:39.003Z,15.35
2019-03-18T20:04:05.302Z,15.30
2019-03-18T20:06:31.669Z,15.32
2019-03-18T20:08:58.054Z,15.28
2019-03-18T20:11:24.342Z,15.24
2019-03-18T20:13:50.651Z,15.23
2019-03-18T20:16:16.952Z,15.28
2019-03-18T20:18:43.304Z,15.37
2019-03-18T20:21:09.615Z,15.35
2019-03-18T20:23:35.920Z,15.41
2019-03-18T20:26:02.238Z,15.29
2019-03-18T20:28:28.540Z,15.22
2019-03-18T20:30:54.893Z,15.21
2019-03-18T20:33:21.201Z,15.14
2019-03-18T20:35:47.624Z,15.05
2019-03-18T20:38:13.937Z,14.98
2019-03-18T20:40:40.245Z,14.87
2019-03-18T20:43:06.563Z,14.93
2019-03-18T20:45:32.872Z,15.00
2019-03-18T20:47:59.258Z,14.99
2019-03-18T20:50:25.548Z,15.01
2019-03-18T20:52:51.859Z,14.86
2019-03-18T20:55:18.173Z,14.86
2019-03-18T20:57:44.520Z,14.91
2019-03-18T21:00:10.802Z,14.70
2019-03-18T21:02:37.111Z,14.54
2019-03-18T21:05:03.438Z,14.39
2019-03-18T21:07:29.749Z,14.35
2019-03-18T21:09:56.062Z,14.32
2019-03-18T21:12:22.371Z,14.29
2019-03-18T21:14:52.311Z,14.28
2019-03-18T21:17:18.614Z,14.34
2019-03-18T21:19:44.955Z,14.24
2019-03-18T21:22:11.297Z,14.14
2019-03-18T21:24:37.609Z,14.11
2019-03-18T21:27:03.924Z,14.22
2019-03-18T21:29:30.264Z,14.51
2019-03-18T21:31:56.570Z,14.51
2019-03-18T21:34:22.915Z,14.63
2019-03-18T21:36:49.189Z,14.30
2019-03-18T21:39:17.877Z,14.26
2019-03-18T21:41:41.833Z,14.59
2019-03-18T21:44:08.179Z,14.86
2019-03-18T21:46:34.454Z,15.00
2019-03-18T21:49:00.796Z,14.64
2019-03-18T21:51:27.129Z,14.49
2019-03-18T21:53:53.439Z,14.44
2019-03-18T21:56:19.742Z,14.33
2019-03-18T21:58:46.139Z,14.06
2019-03-18T22:01:12.458Z,14.01
2019-03-18T22:03:38.829Z,14.03
2019-03-18T22:06:05.166Z,13.86
2019-03-18T22:08:31.494Z,13.50
2019-03-18T22:10:57.796Z,13.43
2019-03-18T22:13:24.154Z,13.44
2019-03-18T22:15:50.461Z,13.63
2019-03-18T22:18:16.819Z,13.75
2019-03-18T22:20:43.130Z,13.66
2019-03-18T22:23:09.479Z,13.42
2019-03-18T22:25:35.801Z,13.21
2019-03-18T22:28:02.107Z,13.13
2019-03-18T22:30:28.443Z,13.15
2019-03-18T22:32:54.765Z,13.25
2019-03-18T22:35:21.076Z,13.18
2019-03-18T22:37:47.406Z,12.98
2019-03-18T22:40:13.749Z,12.84
2019-03-18T22:42:40.068Z,12.72
2019-03-18T22:45:06.405Z,12.64
2019-03-18T22:47:32.679Z,12.62
2019-03-18T22:49:58.993Z,12.70
2019-03-18T22:52:25.319Z,12.83
2019-03-18T22:54:55.863Z,12.86
2019-03-18T22:57:18.534Z,12.73
2019-03-18T22:59:44.850Z,12.37
2019-03-18T23:02:11.155Z,12.07
2019-03-18T23:04:37.508Z,12.02
2019-03-18T23:07:03.829Z,12.12
2019-03-18T23:09:30.131Z,12.25
2019-03-18T23:11:56.481Z,12.43
2019-03-18T23:14:22.788Z,12.51
2019-03-18T23:16:49.105Z,12.48
2019-03-18T23:19:15.414Z,12.27
2019-03-18T23:21:41.725Z,12.09
2019-03-18T23:24:08.030Z,12.17
2019-03-18T23:26:34.341Z,12.13
2019-03-18T23:29:00.645Z,12.21
2019-03-18T23:31:26.982Z,12.40
2019-03-18T23:33:53.294Z,12.50
2019-03-18T23:36:19.595Z,12.55
2019-03-18T23:38:45.917Z,12.66
2019-03-18T23:41:12.242Z,12.75
2019-03-18T23:43:38.551Z,12.80
2019-03-18T23:46:04.984Z,13.02
2019-03-18T23:48:31.302Z,13.06
2019-03-18T23:50:57.619Z,13.23
2019-03-18T23:53:23.935Z,13.48
2019-03-18T23:55:50.250Z,13.58
2019-03-18T23:58:16.563Z,13.68
